Time;durP1;ratioP1;P1;durP2;ratioP2;P2;SDS_P1;SDS_P2;PMS_P1;PMS_P2;Temp;Humidity;BMP_temperature;BMP_pressure;BME280_temperature;BME280_humidity;BME280_pressure;Samples;Min_cycle;Max_cycle;Signal;HPM_P1;HPM_P2
2022/08/21 00:01:34;;;;;;;;;;;24.10;42.50;;;;;;4909436;29;19938;-87
2022/08/21 00:04:08;;;;;;;;;;;24.10;42.50;;;;;;4925560;29;20442;-85
2022/08/21 00:06:35;;;;;;;;;;;24.10;42.10;;;;;;4931428;29;19927;-82
2022/08/21 00:09:03;;;;;;;;;;;24.00;42.20;;;;;;4929893;29;20378;-85
2022/08/21 00:11:33;;;;;;;;;;;24.10;42.40;;;;;;4934267;29;19974;-86
2022/08/21 00:14:00;;;;;;;;;;;24.00;41.90;;;;;;4923982;29;20438;-85
2022/08/21 00:16:27;;;;;;;;;;;24.10;41.80;;;;;;4916460;29;19978;-87
2022/08/21 00:18:54;;;;;;;;;;;24.10;41.60;;;;;;4886033;29;20284;-85
2022/08/21 00:21:22;;;;;;;;;;;24.10;41.30;;;;;;4914215;29;20006;-86
2022/08/21 00:23:49;;;;;;;;;;;24.20;41.30;;;;;;4916574;29;20017;-85
2022/08/21 00:26:16;;;;;;;;;;;24.20;41.10;;;;;;4920595;29;20307;-86
2022/08/21 00:28:45;;;;;;;;;;;24.20;40.80;;;;;;4923669;29;19927;-83
2022/08/21 00:31:12;;;;;;;;;;;24.30;40.50;;;;;;4919186;29;20013;-84
2022/08/21 00:33:39;;;;;;;;;;;24.40;40.70;;;;;;4915554;29;19995;-85
2022/08/21 00:36:06;;;;;;;;;;;24.40;40.60;;;;;;4918216;29;19974;-88
2022/08/21 00:38:33;;;;;;;;;;;24.40;40.40;;;;;;4918746;29;20006;-85
2022/08/21 00:41:02;;;;;;;;;;;24.40;40.60;;;;;;4919325;29;19930;-82
2022/08/21 00:43:49;;;;;;;;;;;24.40;40.70;;;;;;4917697;29;19937;-85
2022/08/21 00:46:16;;;;;;;;;;;24.40;40.20;;;;;;4936235;29;19927;-87
2022/08/21 00:48:43;;;;;;;;;;;24.40;40.20;;;;;;4935213;29;19973;-85
2022/08/21 00:51:13;;;;;;;;;;;24.40;40.30;;;;;;4911663;29;19966;-88
2022/08/21 00:53:43;;;;;;;;;;;24.40;40.60;;;;;;4937855;29;19934;-83
2022/08/21 00:56:17;;;;;;;;;;;24.40;40.50;;;;;;4920332;29;20018;-85
2022/08/21 00:58:45;;;;;;;;;;;24.40;40.30;;;;;;4934874;29;20303;-83
2022/08/21 01:01:15;;;;;;;;;;;24.50;40.00;;;;;;4936041;29;19960;-87
2022/08/21 01:03:45;;;;;;;;;;;24.50;39.60;;;;;;4938516;29;19927;-87
2022/08/21 01:06:12;;;;;;;;;;;24.50;39.90;;;;;;4916469;29;20056;-88
2022/08/21 01:08:39;;;;;;;;;;;24.50;39.70;;;;;;4920959;29;19935;-85
2022/08/21 01:11:13;;;;;;;;;;;24.50;39.80;;;;;;4918068;29;19927;-88
2022/08/21 01:13:44;;;;;;;;;;;24.50;39.90;;;;;;4916574;29;19931;-88
2022/08/21 01:16:13;;;;;;;;;;;24.50;39.90;;;;;;4917385;29;19951;-87
2022/08/21 01:18:40;;;;;;;;;;;24.50;39.90;;;;;;4915137;29;19930;-82
2022/08/21 01:21:12;;;;;;;;;;;24.40;40.10;;;;;;4939977;29;19978;-87
2022/08/21 01:23:41;;;;;;;;;;;24.50;40.10;;;;;;4909482;29;20364;-83
2022/08/21 01:26:08;;;;;;;;;;;24.40;40.00;;;;;;4936272;29;19927;-82
2022/08/21 01:28:38;;;;;;;;;;;24.40;39.80;;;;;;4913960;29;19927;-89
2022/08/21 01:31:07;;;;;;;;;;;24.30;40.20;;;;;;4918896;29;19927;-87
2022/08/21 01:33:34;;;;;;;;;;;24.30;40.00;;;;;;4904720;28;19931;-85
2022/08/21 01:36:00;;;;;;;;;;;24.30;40.00;;;;;;4915879;29;19931;-89
2022/08/21 01:38:27;;;;;;;;;;;24.30;40.10;;;;;;4919183;29;19969;-85
2022/08/21 01:40:56;;;;;;;;;;;24.20;40.30;;;;;;4919374;29;19927;-85
2022/08/21 01:43:23;;;;;;;;;;;24.20;40.30;;;;;;4930936;29;19935;-89
2022/08/21 01:46:05;;;;;;;;;;;24.20;40.50;;;;;;4911694;29;19966;-86
2022/08/21 01:48:31;;;;;;;;;;;24.10;40.40;;;;;;4919366;29;20411;-89
2022/08/21 01:50:58;;;;;;;;;;;24.10;40.60;;;;;;4923614;29;20311;-87
2022/08/21 01:53:26;;;;;;;;;;;24.00;40.70;;;;;;4913549;29;19931;-88
2022/08/21 01:55:59;;;;;;;;;;;24.00;40.70;;;;;;4918823;29;19996;-83
2022/08/21 01:58:26;;;;;;;;;;;24.00;41.00;;;;;;4935059;29;19966;-87
2022/08/21 02:01:27;;;;;;;;;;;24.00;40.70;;;;;;4935610;28;19926;-83
2022/08/21 02:03:54;;;;;;;;;;;24.00;41.00;;;;;;4931748;29;19931;-83
2022/08/21 02:06:21;;;;;;;;;;;23.90;41.10;;;;;;4913751;29;19931;-88
2022/08/21 02:08:48;;;;;;;;;;;23.90;40.90;;;;;;4908005;29;19978;-85
2022/08/21 02:11:14;;;;;;;;;;;23.90;41.20;;;;;;4914158;29;19981;-82
2022/08/21 02:13:41;;;;;;;;;;;23.90;41.20;;;;;;4917207;29;20018;-86
2022/08/21 02:16:09;;;;;;;;;;;23.80;41.50;;;;;;4936233;29;20005;-82
2022/08/21 02:18:35;;;;;;;;;;;23.80;41.50;;;;;;4918312;29;19973;-83
2022/08/21 02:21:03;;;;;;;;;;;23.80;41.10;;;;;;4907368;29;19927;-83
2022/08/21 02:23:30;;;;;;;;;;;23.80;41.30;;;;;;4908535;29;19935;-84
2022/08/21 02:25:58;;;;;;;;;;;23.70;41.70;;;;;;4936577;29;19974;-88
2022/08/21 02:28:25;;;;;;;;;;;23.70;41.60;;;;;;4916059;29;19927;-87
2022/08/21 02:30:54;;;;;;;;;;;23.70;41.50;;;;;;4920566;29;20409;-82
2022/08/21 02:33:21;;;;;;;;;;;23.60;41.70;;;;;;4938240;29;20010;-84
2022/08/21 02:35:49;;;;;;;;;;;23.60;42.00;;;;;;4925381;29;19926;-84
2022/08/21 02:38:18;;;;;;;;;;;23.60;41.90;;;;;;4928121;29;19938;-87
2022/08/21 02:40:45;;;;;;;;;;;23.50;42.20;;;;;;4925468;29;19927;-82
2022/08/21 02:43:14;;;;;;;;;;;23.60;41.80;;;;;;4933674;29;20355;-87
2022/08/21 02:45:43;;;;;;;;;;;23.60;42.00;;;;;;4923068;29;19939;-82
2022/08/21 02:48:12;;;;;;;;;;;23.60;42.00;;;;;;4925436;29;20100;-87
2022/08/21 02:50:40;;;;;;;;;;;23.50;42.50;;;;;;4938099;29;19935;-85
2022/08/21 02:53:08;;;;;;;;;;;23.50;41.90;;;;;;4926070;29;19982;-86
2022/08/21 02:55:36;;;;;;;;;;;23.50;41.80;;;;;;4937728;29;19934;-85
2022/08/21 02:58:03;;;;;;;;;;;23.50;41.90;;;;;;4935173;29;20399;-84
2022/08/21 03:00:32;;;;;;;;;;;23.60;42.00;;;;;;4918850;29;19934;-83
2022/08/21 03:02:59;;;;;;;;;;;23.50;42.00;;;;;;4937668;29;19935;-87
2022/08/21 03:05:26;;;;;;;;;;;23.50;41.80;;;;;;4910692;29;19959;-86
2022/08/21 03:07:54;;;;;;;;;;;23.50;41.80;;;;;;4914151;29;19966;-87
2022/08/21 03:10:21;;;;;;;;;;;23.60;41.30;;;;;;4918039;29;19934;-85
2022/08/21 03:12:48;;;;;;;;;;;23.60;41.60;;;;;;4909616;29;19981;-83
2022/08/21 03:15:17;;;;;;;;;;;23.60;41.60;;;;;;4922308;29;19927;-86
2022/08/21 03:17:44;;;;;;;;;;;23.50;41.50;;;;;;4926354;29;19956;-83
2022/08/21 03:20:12;;;;;;;;;;;23.50;41.80;;;;;;4916521;29;19989;-86
2022/08/21 03:22:39;;;;;;;;;;;23.40;41.70;;;;;;4933965;29;19931;-81
2022/08/21 03:25:06;;;;;;;;;;;23.50;41.80;;;;;;4921384;29;19935;-86
2022/08/21 03:27:36;;;;;;;;;;;23.40;41.90;;;;;;4921160;29;20451;-87
2022/08/21 03:30:07;;;;;;;;;;;23.40;42.20;;;;;;4924318;29;19933;-86
2022/08/21 03:32:35;;;;;;;;;;;23.40;41.90;;;;;;4919768;29;19962;-84
2022/08/21 03:35:03;;;;;;;;;;;23.40;42.20;;;;;;4922066;29;19927;-86
2022/08/21 03:37:30;;;;;;;;;;;23.30;42.30;;;;;;4905071;29;19927;-87
2022/08/21 03:39:57;;;;;;;;;;;23.30;42.40;;;;;;4918878;29;19982;-85
2022/08/21 03:42:24;;;;;;;;;;;23.20;42.50;;;;;;4916245;29;19958;-86
2022/08/21 03:44:51;;;;;;;;;;;23.10;42.70;;;;;;4936934;29;19982;-87
2022/08/21 03:47:18;;;;;;;;;;;23.10;43.60;;;;;;4921257;29;19935;-85
2022/08/21 03:49:45;;;;;;;;;;;23.10;42.80;;;;;;4920696;29;20306;-83
2022/08/21 03:52:11;;;;;;;;;;;23.00;42.70;;;;;;4911720;29;19942;-87
2022/08/21 03:54:40;;;;;;;;;;;23.00;43.10;;;;;;4936179;29;19927;-86
2022/08/21 03:57:08;;;;;;;;;;;23.00;43.20;;;;;;4916721;29;19927;-86
2022/08/21 03:59:35;;;;;;;;;;;22.90;43.10;;;;;;4936681;29;20442;-85
2022/08/21 04:02:04;;;;;;;;;;;22.90;43.30;;;;;;4924200;29;19959;-85
2022/08/21 04:04:31;;;;;;;;;;;22.90;43.10;;;;;;4920339;29;20391;-86
2022/08/21 04:06:58;;;;;;;;;;;22.90;43.00;;;;;;4920139;29;19978;-85
2022/08/21 04:09:25;;;;;;;;;;;22.90;43.10;;;;;;4923332;29;19951;-87
2022/08/21 04:11:52;;;;;;;;;;;22.90;42.90;;;;;;4924341;29;19982;-86
2022/08/21 04:14:19;;;;;;;;;;;22.80;43.10;;;;;;4920219;29;19978;-86
2022/08/21 04:16:46;;;;;;;;;;;22.80;42.90;;;;;;4936336;29;19985;-86
2022/08/21 04:19:13;;;;;;;;;;;22.80;43.10;;;;;;4935790;29;19950;-86
2022/08/21 04:21:40;;;;;;;;;;;22.80;43.30;;;;;;4909208;29;19955;-84
2022/08/21 04:24:10;;;;;;;;;;;22.80;43.20;;;;;;4909470;29;19928;-86
2022/08/21 04:26:37;;;;;;;;;;;22.80;43.20;;;;;;4897971;29;20359;-86
2022/08/21 04:29:06;;;;;;;;;;;22.80;43.20;;;;;;4896994;29;19928;-86
2022/08/21 04:31:36;;;;;;;;;;;22.80;43.30;;;;;;4901308;29;19931;-85
2022/08/21 04:34:04;;;;;;;;;;;22.80;43.40;;;;;;4915564;29;19927;-85
2022/08/21 04:36:31;;;;;;;;;;;22.70;43.60;;;;;;4917273;29;19927;-85
2022/08/21 04:38:59;;;;;;;;;;;22.70;43.70;;;;;;4895063;29;19983;-85
2022/08/21 04:41:29;;;;;;;;;;;22.70;43.80;;;;;;4900910;29;19927;-86
2022/08/21 04:43:56;;;;;;;;;;;22.60;43.60;;;;;;4893366;29;20408;-82
2022/08/21 04:46:22;;;;;;;;;;;22.60;43.70;;;;;;4919308;29;20372;-86
2022/08/21 04:48:49;;;;;;;;;;;22.60;44.10;;;;;;4916975;29;19931;-82
2022/08/21 04:51:19;;;;;;;;;;;22.50;44.50;;;;;;4899684;29;20486;-87
2022/08/21 04:53:48;;;;;;;;;;;22.50;44.60;;;;;;4896942;29;19931;-85
2022/08/21 04:56:19;;;;;;;;;;;22.40;44.40;;;;;;4900863;29;20409;-86
2022/08/21 04:58:48;;;;;;;;;;;22.50;44.30;;;;;;4902246;29;19931;-85
2022/08/21 05:01:16;;;;;;;;;;;22.50;44.40;;;;;;4896449;29;19930;-82
2022/08/21 05:03:44;;;;;;;;;;;22.50;44.10;;;;;;4900877;29;20022;-83
2022/08/21 05:06:12;;;;;;;;;;;22.50;44.00;;;;;;4916018;29;19935;-81
2022/08/21 05:08:40;;;;;;;;;;;22.50;43.60;;;;;;4913341;29;19982;-86
2022/08/21 05:11:07;;;;;;;;;;;22.60;43.40;;;;;;4910186;29;19931;-87
2022/08/21 05:13:34;;;;;;;;;;;22.60;43.80;;;;;;4894672;29;19983;-83
2022/08/21 05:16:01;;;;;;;;;;;22.60;43.20;;;;;;4921746;29;19946;-84
2022/08/21 05:18:28;;;;;;;;;;;22.60;43.60;;;;;;4901244;29;19935;-87
2022/08/21 05:20:55;;;;;;;;;;;22.60;43.40;;;;;;4924056;29;19927;-85
2022/08/21 05:23:22;;;;;;;;;;;22.60;43.40;;;;;;4924355;29;20306;-86
2022/08/21 05:25:49;;;;;;;;;;;22.50;43.80;;;;;;4921512;29;19927;-81
2022/08/21 05:28:15;;;;;;;;;;;22.60;44.10;;;;;;4934688;29;19989;-83
2022/08/21 05:30:42;;;;;;;;;;;22.50;44.00;;;;;;4922989;29;19931;-85
2022/08/21 05:33:09;;;;;;;;;;;22.60;43.90;;;;;;4914514;29;19927;-83
2022/08/21 05:35:37;;;;;;;;;;;22.60;44.10;;;;;;4922356;29;19931;-85
2022/08/21 05:38:05;;;;;;;;;;;22.50;44.00;;;;;;4914514;29;20410;-85
2022/08/21 05:40:43;;;;;;;;;;;22.50;43.80;;;;;;4933216;29;19935;-83
2022/08/21 05:43:09;;;;;;;;;;;22.60;44.50;;;;;;4915372;29;20049;-83
2022/08/21 05:45:36;;;;;;;;;;;22.60;43.80;;;;;;4921393;29;19985;-83
2022/08/21 05:48:19;;;;;;;;;;;22.60;43.80;;;;;;4922958;29;19934;-85
2022/08/21 05:50:47;;;;;;;;;;;22.70;43.70;;;;;;4923800;29;19938;-85
2022/08/21 05:53:14;;;;;;;;;;;22.70;43.70;;;;;;4916942;29;19930;-83
2022/08/21 05:55:41;;;;;;;;;;;22.70;43.50;;;;;;4920016;29;19927;-84
2022/08/21 05:58:12;;;;;;;;;;;22.70;43.50;;;;;;4933091;29;20134;-84
2022/08/21 06:00:39;;;;;;;;;;;22.80;44.00;;;;;;4923258;29;19986;-84
2022/08/21 06:03:10;;;;;;;;;;;22.80;43.80;;;;;;4937908;28;19927;-85
2022/08/21 06:05:37;;;;;;;;;;;22.90;43.30;;;;;;4923488;29;19983;-86
2022/08/21 06:08:04;;;;;;;;;;;23.00;42.90;;;;;;4940985;29;19927;-84
2022/08/21 06:10:31;;;;;;;;;;;23.00;43.00;;;;;;4924295;29;19994;-85
2022/08/21 06:12:58;;;;;;;;;;;23.00;43.10;;;;;;4924810;29;19999;-83
2022/08/21 06:15:25;;;;;;;;;;;23.00;43.10;;;;;;4925833;28;20307;-85
2022/08/21 06:17:52;;;;;;;;;;;23.10;43.30;;;;;;4929559;29;19938;-83
2022/08/21 06:20:19;;;;;;;;;;;23.20;42.90;;;;;;4920819;29;19931;-84
2022/08/21 06:22:46;;;;;;;;;;;23.20;42.60;;;;;;4938604;29;19931;-86
2022/08/21 06:25:12;;;;;;;;;;;23.30;42.00;;;;;;4918314;29;19931;-86
2022/08/21 06:27:40;;;;;;;;;;;23.40;42.40;;;;;;4911875;29;19975;-85
2022/08/21 06:30:07;;;;;;;;;;;23.40;42.30;;;;;;4931937;29;19961;-86
2022/08/21 06:32:34;;;;;;;;;;;23.40;42.20;;;;;;4925069;29;20403;-86
2022/08/21 06:35:02;;;;;;;;;;;23.60;41.70;;;;;;4910700;29;19931;-86
2022/08/21 06:37:29;;;;;;;;;;;23.60;41.10;;;;;;4922983;29;20380;-83
2022/08/21 06:39:56;;;;;;;;;;;23.70;41.90;;;;;;4938222;29;19955;-85
2022/08/21 06:42:24;;;;;;;;;;;23.70;41.00;;;;;;4913354;29;19931;-85
2022/08/21 06:44:53;;;;;;;;;;;23.70;41.60;;;;;;4945127;29;20280;-83
2022/08/21 06:47:20;;;;;;;;;;;23.80;41.20;;;;;;4924924;29;20344;-85
2022/08/21 06:49:47;;;;;;;;;;;23.90;40.30;;;;;;4924779;29;19934;-82
2022/08/21 06:52:15;;;;;;;;;;;23.90;40.80;;;;;;4923558;29;19987;-86
2022/08/21 06:54:42;;;;;;;;;;;24.00;40.70;;;;;;4929409;29;19926;-84
2022/08/21 06:57:09;;;;;;;;;;;24.00;41.00;;;;;;4929890;29;19931;-82
2022/08/21 06:59:36;;;;;;;;;;;24.10;40.90;;;;;;4943192;29;19927;-84
2022/08/21 07:02:03;;;;;;;;;;;24.10;40.20;;;;;;4923452;29;19935;-83
2022/08/21 07:04:30;;;;;;;;;;;24.20;41.10;;;;;;4923576;29;20347;-82
2022/08/21 07:06:57;;;;;;;;;;;24.30;39.50;;;;;;4923567;29;20466;-86
2022/08/21 07:09:24;;;;;;;;;;;24.40;40.50;;;;;;4938710;29;19927;-84
2022/08/21 07:11:51;;;;;;;;;;;24.40;40.60;;;;;;4930789;29;19986;-84
2022/08/21 07:14:18;;;;;;;;;;;24.50;40.10;;;;;;4926178;29;19943;-84
2022/08/21 07:16:46;;;;;;;;;;;24.60;40.60;;;;;;4925298;29;19931;-85
2022/08/21 07:19:13;;;;;;;;;;;24.70;40.60;;;;;;4941841;29;19982;-85
2022/08/21 07:21:40;;;;;;;;;;;24.80;39.80;;;;;;4924276;29;19930;-83
2022/08/21 07:24:07;;;;;;;;;;;24.90;39.50;;;;;;4941152;29;19931;-85
2022/08/21 07:26:34;;;;;;;;;;;25.00;39.10;;;;;;4926619;29;19927;-86
2022/08/21 07:29:00;;;;;;;;;;;25.00;39.80;;;;;;4922722;29;19979;-86
2022/08/21 07:31:27;;;;;;;;;;;25.10;39.50;;;;;;4919475;29;19986;-85
2022/08/21 07:33:55;;;;;;;;;;;25.20;38.50;;;;;;4937240;29;19927;-85
2022/08/21 07:36:21;;;;;;;;;;;25.30;39.10;;;;;;4944668;29;19930;-85
2022/08/21 07:38:48;;;;;;;;;;;25.40;38.60;;;;;;4939988;29;19927;-84
2022/08/21 07:41:20;;;;;;;;;;;25.50;38.00;;;;;;4920443;29;19927;-85
2022/08/21 07:43:47;;;;;;;;;;;25.50;38.90;;;;;;4930340;29;19926;-86
2022/08/21 07:46:19;;;;;;;;;;;25.50;39.40;;;;;;4937817;29;19973;-81
2022/08/21 07:48:46;;;;;;;;;;;25.60;39.10;;;;;;4943892;29;19964;-87
2022/08/21 07:51:14;;;;;;;;;;;25.60;38.80;;;;;;4932540;29;19981;-87
2022/08/21 07:53:42;;;;;;;;;;;25.60;39.30;;;;;;4933918;29;19927;-85
2022/08/21 07:56:10;;;;;;;;;;;25.70;38.30;;;;;;4926309;29;20352;-87
2022/08/21 07:58:37;;;;;;;;;;;25.90;38.60;;;;;;4921504;29;19965;-86
2022/08/21 08:01:05;;;;;;;;;;;26.00;38.40;;;;;;4913212;29;20351;-86
2022/08/21 08:03:32;;;;;;;;;;;26.20;37.90;;;;;;4920402;29;20014;-85
2022/08/21 08:05:59;;;;;;;;;;;26.40;38.90;;;;;;4923305;29;19930;-84
2022/08/21 08:08:27;;;;;;;;;;;26.50;38.20;;;;;;4923142;29;19926;-88
2022/08/21 08:10:55;;;;;;;;;;;26.60;37.60;;;;;;4935322;29;19931;-88
2022/08/21 08:13:22;;;;;;;;;;;26.80;37.10;;;;;;4915854;29;19931;-84
2022/08/21 08:15:49;;;;;;;;;;;27.00;36.50;;;;;;4919832;29;19977;-88
2022/08/21 08:18:16;;;;;;;;;;;27.20;36.10;;;;;;4931705;29;19927;-87
2022/08/21 08:20:43;;;;;;;;;;;27.40;35.80;;;;;;4920587;29;19974;-86
2022/08/21 08:23:10;;;;;;;;;;;27.50;35.60;;;;;;4932096;29;19926;-87
2022/08/21 08:25:37;;;;;;;;;;;27.60;35.50;;;;;;4918445;29;20351;-88
2022/08/21 08:28:04;;;;;;;;;;;27.70;35.40;;;;;;4922748;29;19966;-88
2022/08/21 08:30:44;;;;;;;;;;;27.70;35.10;;;;;;4913501;29;19992;-88
2022/08/21 08:33:11;;;;;;;;;;;28.00;34.20;;;;;;4925928;29;19982;-85
2022/08/21 08:35:38;;;;;;;;;;;28.00;33.70;;;;;;4918111;29;20372;-85
2022/08/21 08:38:05;;;;;;;;;;;28.00;34.00;;;;;;4915414;29;20284;-85
2022/08/21 08:40:51;;;;;;;;;;;28.10;34.60;;;;;;4935545;29;19982;-87
2022/08/21 08:43:18;;;;;;;;;;;28.20;34.10;;;;;;4926281;29;19982;-86
2022/08/21 08:45:50;;;;;;;;;;;28.30;33.60;;;;;;4935159;29;20471;-85
2022/08/21 08:48:30;;;;;;;;;;;28.30;33.10;;;;;;4938297;29;19935;-88
2022/08/21 08:50:59;;;;;;;;;;;28.40;33.40;;;;;;4930266;29;19934;-86
2022/08/21 08:53:36;;;;;;;;;;;28.50;33.40;;;;;;4939984;29;19930;-87
2022/08/21 08:56:05;;;;;;;;;;;28.60;33.80;;;;;;4930879;29;19982;-87
2022/08/21 08:58:35;;;;;;;;;;;28.80;34.10;;;;;;4940177;29;19935;-85
2022/08/21 09:01:05;;;;;;;;;;;29.00;33.40;;;;;;4921898;28;19933;-88
2022/08/21 09:03:34;;;;;;;;;;;29.00;33.60;;;;;;4920450;29;19935;-87
2022/08/21 09:06:04;;;;;;;;;;;29.20;33.10;;;;;;4914576;29;19934;-87
2022/08/21 09:08:59;;;;;;;;;;;29.30;33.60;;;;;;4942039;29;20304;-86
2022/08/21 09:11:28;;;;;;;;;;;29.60;34.50;;;;;;4926366;29;19977;-86
2022/08/21 09:14:05;;;;;;;;;;;29.80;32.20;;;;;;4940221;28;19931;-86
2022/08/21 09:16:47;;;;;;;;;;;29.90;33.10;;;;;;4938892;29;19994;-87
2022/08/21 09:19:25;;;;;;;;;;;30.10;32.70;;;;;;4925560;29;20387;-87
2022/08/21 09:22:10;;;;;;;;;;;30.20;32.90;;;;;;4936318;29;19935;-87
2022/08/21 09:24:47;;;;;;;;;;;30.10;31.50;;;;;;4919219;29;19962;-86
2022/08/21 09:27:18;;;;;;;;;;;30.00;32.50;;;;;;4919056;29;20566;-87
2022/08/21 09:29:47;;;;;;;;;;;30.20;33.40;;;;;;4916054;29;19977;-87
2022/08/21 09:32:18;;;;;;;;;;;30.30;33.80;;;;;;4919399;29;19927;-85
2022/08/21 09:34:58;;;;;;;;;;;30.50;32.90;;;;;;4921978;29;19931;-88
2022/08/21 09:37:26;;;;;;;;;;;30.50;31.50;;;;;;4919951;29;19927;-87
2022/08/21 09:39:53;;;;;;;;;;;30.40;32.60;;;;;;4920726;29;20073;-88
2022/08/21 09:42:33;;;;;;;;;;;30.30;33.60;;;;;;4934663;29;20447;-84
2022/08/21 09:45:21;;;;;;;;;;;30.50;34.10;;;;;;4924061;29;20008;-88
2022/08/21 09:47:48;;;;;;;;;;;30.70;34.10;;;;;;4911875;29;19982;-88
2022/08/21 09:50:17;;;;;;;;;;;30.90;34.10;;;;;;4926033;29;20009;-88
2022/08/21 09:52:55;;;;;;;;;;;31.10;33.10;;;;;;4918269;29;19930;-85
2022/08/21 09:58:30;;;;;;;;;;;31.30;30.90;;;;;;4936008;29;19934;-87
2022/08/21 10:00:58;;;;;;;;;;;31.40;30.50;;;;;;4927804;29;19974;-88
2022/08/21 10:03:25;;;;;;;;;;;31.50;30.50;;;;;;4921931;29;19926;-87
2022/08/21 10:06:00;;;;;;;;;;;31.60;30.70;;;;;;4917355;29;20346;-86
2022/08/21 10:08:28;;;;;;;;;;;31.70;30.30;;;;;;4912923;29;19927;-89
2022/08/21 10:11:01;;;;;;;;;;;31.70;30.50;;;;;;4933040;29;20013;-87
2022/08/21 10:13:28;;;;;;;;;;;31.80;30.60;;;;;;4934854;29;20613;-89
2022/08/21 10:15:58;;;;;;;;;;;31.80;31.00;;;;;;4913780;29;19930;-88
2022/08/21 10:18:35;;;;;;;;;;;31.90;29.80;;;;;;4914986;29;20347;-90
2022/08/21 10:21:11;;;;;;;;;;;31.90;29.90;;;;;;4912311;29;20001;-89
2022/08/21 10:23:44;;;;;;;;;;;32.10;29.80;;;;;;4912863;29;21076;-87
2022/08/21 10:26:35;;;;;;;;;;;32.20;30.30;;;;;;4912304;29;19966;-84
2022/08/21 10:29:11;;;;;;;;;;;32.20;30.10;;;;;;4927374;29;19934;-88
2022/08/21 10:31:57;;;;;;;;;;;32.20;28.20;;;;;;4919987;29;19931;-89
2022/08/21 10:34:47;;;;;;;;;;;32.20;28.70;;;;;;4923347;29;19926;-91
2022/08/21 10:37:29;;;;;;;;;;;32.20;29.50;;;;;;4930404;29;19931;-86
2022/08/21 10:40:15;;;;;;;;;;;32.30;29.00;;;;;;4908831;29;19935;-85
2022/08/21 10:42:42;;;;;;;;;;;32.40;29.00;;;;;;4912144;29;19931;-89
2022/08/21 10:45:22;;;;;;;;;;;32.30;27.70;;;;;;4916404;29;20379;-90
2022/08/21 10:47:56;;;;;;;;;;;32.30;29.70;;;;;;4938605;29;20340;-89
2022/08/21 10:50:31;;;;;;;;;;;32.40;28.50;;;;;;4920670;29;19927;-89
2022/08/21 10:53:33;;;;;;;;;;;32.40;28.40;;;;;;4915900;29;20344;-87
2022/08/21 10:56:17;;;;;;;;;;;32.50;29.20;;;;;;4936126;29;19927;-83
2022/08/21 10:58:56;;;;;;;;;;;32.70;29.50;;;;;;4928403;29;20303;-88
2022/08/21 11:01:27;;;;;;;;;;;32.90;28.00;;;;;;4930029;29;20467;-89
2022/08/21 11:04:09;;;;;;;;;;;32.90;28.70;;;;;;4938494;29;19930;-86
2022/08/21 11:06:38;;;;;;;;;;;32.80;29.30;;;;;;4918747;29;19927;-86
2022/08/21 11:09:11;;;;;;;;;;;32.80;28.70;;;;;;4933789;29;20335;-86
2022/08/21 11:11:49;;;;;;;;;;;32.90;28.20;;;;;;4924806;29;19927;-88
2022/08/21 11:14:41;;;;;;;;;;;33.10;29.10;;;;;;4927191;29;19982;-88
2022/08/21 11:17:18;;;;;;;;;;;33.10;28.80;;;;;;4918200;29;20111;-87
2022/08/21 11:19:50;;;;;;;;;;;33.30;29.30;;;;;;4929291;29;19955;-87
2022/08/21 11:22:23;;;;;;;;;;;33.40;29.30;;;;;;4917341;29;19974;-89
2022/08/21 11:24:59;;;;;;;;;;;33.60;29.30;;;;;;4925631;29;19927;-88
2022/08/21 11:27:41;;;;;;;;;;;33.30;28.10;;;;;;4936327;29;19982;-89
2022/08/21 11:30:08;;;;;;;;;;;33.10;28.90;;;;;;4937103;29;19934;-86
2022/08/21 11:32:41;;;;;;;;;;;33.00;30.00;;;;;;4915555;29;20300;-87
2022/08/21 11:35:11;;;;;;;;;;;33.10;30.00;;;;;;4912084;29;19978;-87
2022/08/21 11:37:41;;;;;;;;;;;33.10;29.20;;;;;;4928150;29;19964;-86
2022/08/21 11:40:28;;;;;;;;;;;33.20;29.20;;;;;;4919966;29;19930;-86
2022/08/21 11:43:11;;;;;;;;;;;33.20;28.50;;;;;;4908940;29;20280;-87
2022/08/21 11:45:37;;;;;;;;;;;33.20;28.10;;;;;;4931135;29;20462;-81
2022/08/21 11:48:17;;;;;;;;;;;33.20;28.90;;;;;;4919786;29;19934;-85
2022/08/21 11:50:44;;;;;;;;;;;33.40;28.70;;;;;;4917858;29;19983;-84
2022/08/21 11:53:14;;;;;;;;;;;33.50;29.10;;;;;;4915181;29;19928;-85
2022/08/21 11:55:43;;;;;;;;;;;33.50;27.90;;;;;;4935917;29;19926;-84
2022/08/21 11:58:14;;;;;;;;;;;33.50;29.20;;;;;;4932936;29;19926;-85
2022/08/21 12:00:46;;;;;;;;;;;33.50;29.20;;;;;;4920997;29;20384;-85
2022/08/21 12:03:15;;;;;;;;;;;33.50;29.10;;;;;;4915524;29;19931;-81
2022/08/21 12:05:52;;;;;;;;;;;33.60;29.00;;;;;;4918736;29;19999;-86
2022/08/21 12:08:27;;;;;;;;;;;33.80;29.50;;;;;;4913236;29;19957;-87
2022/08/21 12:11:02;;;;;;;;;;;34.00;28.50;;;;;;4925254;29;19927;-81
2022/08/21 12:13:30;;;;;;;;;;;34.00;27.90;;;;;;4933762;29;20391;-85
2022/08/21 12:16:12;;;;;;;;;;;34.00;27.40;;;;;;4935479;29;20355;-86
2022/08/21 12:18:39;;;;;;;;;;;34.00;28.00;;;;;;4926762;29;19990;-86
2022/08/21 12:21:27;;;;;;;;;;;34.20;27.80;;;;;;4922197;29;19927;-87
2022/08/21 12:24:16;;;;;;;;;;;34.40;27.80;;;;;;4911999;29;19931;-85
2022/08/21 12:26:50;;;;;;;;;;;34.60;28.10;;;;;;4934114;29;19927;-86
2022/08/21 12:29:24;;;;;;;;;;;34.60;27.70;;;;;;4916122;29;19930;-82
2022/08/21 12:32:13;;;;;;;;;;;34.60;27.80;;;;;;4920656;29;19938;-86
2022/08/21 12:34:45;;;;;;;;;;;34.60;27.80;;;;;;4896043;29;19927;-87
2022/08/21 12:37:16;;;;;;;;;;;34.50;27.20;;;;;;4921731;29;19926;-86
2022/08/21 12:39:46;;;;;;;;;;;34.50;27.40;;;;;;4921527;29;19934;-85
2022/08/21 12:42:13;;;;;;;;;;;34.60;28.10;;;;;;4936099;29;19934;-85
2022/08/21 12:44:43;;;;;;;;;;;34.70;27.80;;;;;;4917172;29;20376;-81
2022/08/21 12:47:39;;;;;;;;;;;34.60;27.70;;;;;;4919939;29;19994;-85
2022/08/21 12:50:09;;;;;;;;;;;34.60;27.60;;;;;;4903008;29;20508;-86
2022/08/21 12:52:39;;;;;;;;;;;34.70;28.20;;;;;;4918375;29;19927;-85
2022/08/21 12:55:10;;;;;;;;;;;34.60;27.70;;;;;;4932045;29;19933;-81
2022/08/21 12:57:39;;;;;;;;;;;34.80;29.90;;;;;;4918191;29;19931;-87
2022/08/21 13:00:14;;;;;;;;;;;34.90;28.30;;;;;;4915741;29;19978;-84
2022/08/21 13:02:49;;;;;;;;;;;34.90;27.00;;;;;;4914555;29;20426;-87
2022/08/21 13:05:27;;;;;;;;;;;35.10;27.90;;;;;;4916501;29;19927;-85
2022/08/21 13:07:54;;;;;;;;;;;35.20;27.10;;;;;;4917038;29;19927;-87
2022/08/21 13:10:26;;;;;;;;;;;35.20;26.70;;;;;;4907499;29;20395;-87
2022/08/21 13:12:57;;;;;;;;;;;35.10;26.70;;;;;;4919770;29;19935;-82
2022/08/21 13:15:28;;;;;;;;;;;35.10;27.50;;;;;;4919582;29;19931;-87
2022/08/21 13:18:01;;;;;;;;;;;35.30;26.90;;;;;;4932571;29;19966;-87
2022/08/21 13:20:30;;;;;;;;;;;34.90;25.60;;;;;;4916669;29;19930;-83
2022/08/21 13:22:58;;;;;;;;;;;34.70;27.00;;;;;;4914147;29;19990;-86
2022/08/21 13:25:27;;;;;;;;;;;34.80;27.60;;;;;;4902238;29;19982;-87
2022/08/21 13:27:58;;;;;;;;;;;34.70;26.60;;;;;;4913979;29;19999;-83
2022/08/21 13:30:25;;;;;;;;;;;34.80;27.00;;;;;;4896366;29;19928;-86
2022/08/21 13:32:56;;;;;;;;;;;34.70;26.40;;;;;;4893749;29;19931;-83
2022/08/21 13:35:27;;;;;;;;;;;34.90;26.20;;;;;;4897743;29;19937;-82
2022/08/21 13:37:54;;;;;;;;;;;35.00;25.90;;;;;;4910977;29;19983;-86
2022/08/21 13:40:26;;;;;;;;;;;35.10;26.10;;;;;;4911836;29;20356;-86
2022/08/21 13:42:52;;;;;;;;;;;35.30;25.70;;;;;;4885426;29;19927;-87
2022/08/21 13:45:24;;;;;;;;;;;35.20;26.40;;;;;;4902106;29;20395;-86
2022/08/21 13:47:52;;;;;;;;;;;35.50;27.10;;;;;;4910181;29;19931;-87
2022/08/21 13:50:21;;;;;;;;;;;35.50;25.50;;;;;;4914418;29;20376;-83
2022/08/21 13:52:58;;;;;;;;;;;35.50;26.30;;;;;;4904983;29;19991;-88
2022/08/21 13:55:25;;;;;;;;;;;35.50;26.30;;;;;;4889534;29;20372;-87
2022/08/21 13:57:59;;;;;;;;;;;35.50;26.60;;;;;;4905704;29;19957;-84
2022/08/21 14:00:27;;;;;;;;;;;35.50;26.40;;;;;;4906574;29;20371;-87
2022/08/21 14:02:59;;;;;;;;;;;35.50;26.50;;;;;;4907110;29;19982;-87
2022/08/21 14:05:28;;;;;;;;;;;35.40;26.80;;;;;;4904889;29;19931;-82
2022/08/21 14:08:06;;;;;;;;;;;35.50;26.60;;;;;;4912952;29;19982;-87
2022/08/21 14:10:36;;;;;;;;;;;35.50;26.50;;;;;;4902094;29;19931;-87
2022/08/21 14:13:05;;;;;;;;;;;35.60;25.60;;;;;;4903769;29;19963;-87
2022/08/21 14:15:33;;;;;;;;;;;35.30;25.50;;;;;;4901082;29;20497;-83
2022/08/21 14:18:17;;;;;;;;;;;35.30;26.20;;;;;;4904160;29;19930;-86
2022/08/21 14:20:44;;;;;;;;;;;35.40;26.60;;;;;;4897517;29;19931;-86
2022/08/21 14:23:13;;;;;;;;;;;35.70;27.30;;;;;;4901780;29;19927;-87
2022/08/21 14:25:42;;;;;;;;;;;35.80;25.20;;;;;;4921394;29;20379;-87
2022/08/21 14:28:22;;;;;;;;;;;35.80;25.90;;;;;;4925129;29;20325;-83
2022/08/21 14:30:54;;;;;;;;;;;35.80;25.90;;;;;;4923719;29;20001;-86
2022/08/21 14:33:27;;;;;;;;;;;35.90;25.90;;;;;;4915713;29;19928;-82
2022/08/21 14:35:54;;;;;;;;;;;36.00;25.40;;;;;;4912516;29;19987;-88
2022/08/21 14:38:21;;;;;;;;;;;36.10;25.20;;;;;;4900079;29;19927;-88